sensor_id;sensor_type;location;lat;lon;timestamp;P1;durP1;ratioP1;P2;durP2;ratioP2
6019;SDS011;3038;51.122;6.840;2023-01-01T00:00:00;39.00;;;34.90;;
6019;SDS011;3038;51.122;6.840;2023-01-01T00:02:26;26.67;;;24.27;;
6019;SDS011;3038;51.122;6.840;2023-01-01T00:04:51;26.07;;;20.67;;
6019;SDS011;3038;51.122;6.840;2023-01-01T00:07:17;19.23;;;16.50;;
6019;SDS011;3038;51.122;6.840;2023-01-01T00:09:42;14.20;;;12.50;;
6019;SDS011;3038;51.122;6.840;2023-01-01T00:12:26;15.67;;;14.17;;
6019;SDS011;3038;51.122;6.840;2023-01-01T00:14:51;14.17;;;12.87;;
6019;SDS011;3038;51.122;6.840;2023-01-01T00:17:17;14.77;;;12.03;;
6019;SDS011;3038;51.122;6.840;2023-01-01T00:19:42;14.23;;;10.77;;
6019;SDS011;3038;51.122;6.840;2023-01-01T00:22:07;17.73;;;11.47;;
6019;SDS011;3038;51.122;6.840;2023-01-01T00:24:33;13.70;;;9.97;;
6019;SDS011;3038;51.122;6.840;2023-01-01T00:26:58;11.13;;;9.13;;
6019;SDS011;3038;51.122;6.840;2023-01-01T00:29:24;15.20;;;9.10;;
6019;SDS011;3038;51.122;6.840;2023-01-01T00:31:49;9.30;;;7.13;;
6019;SDS011;3038;51.122;6.840;2023-01-01T00:34:14;9.53;;;6.97;;
6019;SDS011;3038;51.122;6.840;2023-01-01T00:36:40;8.87;;;6.90;;
6019;SDS011;3038;51.122;6.840;2023-01-01T00:39:05;8.63;;;6.27;;
6019;SDS011;3038;51.122;6.840;2023-01-01T00:41:30;7.30;;;6.00;;
6019;SDS011;3038;51.122;6.840;2023-01-01T00:43:56;9.50;;;6.40;;
6019;SDS011;3038;51.122;6.840;2023-01-01T00:46:21;12.07;;;7.00;;
6019;SDS011;3038;51.122;6.840;2023-01-01T00:48:46;7.00;;;5.40;;
6019;SDS011;3038;51.122;6.840;2023-01-01T00:51:12;5.93;;;4.40;;
6019;SDS011;3038;51.122;6.840;2023-01-01T00:53:37;5.80;;;4.63;;
6019;SDS011;3038;51.122;6.840;2023-01-01T00:56:03;6.40;;;5.80;;
6019;SDS011;3038;51.122;6.840;2023-01-01T00:58:29;6.30;;;4.70;;
6019;SDS011;3038;51.122;6.840;2023-01-01T01:00:54;9.20;;;5.70;;
6019;SDS011;3038;51.122;6.840;2023-01-01T01:03:20;7.33;;;5.63;;
6019;SDS011;3038;51.122;6.840;2023-01-01T01:05:58;6.60;;;5.53;;
6019;SDS011;3038;51.122;6.840;2023-01-01T01:08:35;8.90;;;6.33;;
6019;SDS011;3038;51.122;6.840;2023-01-01T01:11:09;10.30;;;5.60;;
6019;SDS011;3038;51.122;6.840;2023-01-01T01:13:44;7.70;;;5.00;;
6019;SDS011;3038;51.122;6.840;2023-01-01T01:16:11;6.53;;;5.10;;
6019;SDS011;3038;51.122;6.840;2023-01-01T01:18:38;8.53;;;4.53;;
6019;SDS011;3038;51.122;6.840;2023-01-01T01:21:04;8.67;;;4.60;;
6019;SDS011;3038;51.122;6.840;2023-01-01T01:23:30;9.10;;;5.03;;
6019;SDS011;3038;51.122;6.840;2023-01-01T01:26:05;6.00;;;4.30;;
6019;SDS011;3038;51.122;6.840;2023-01-01T01:28:32;5.57;;;4.97;;
6019;SDS011;3038;51.122;6.840;2023-01-01T01:31:00;6.80;;;5.90;;
6019;SDS011;3038;51.122;6.840;2023-01-01T01:33:26;6.50;;;5.83;;
6019;SDS011;3038;51.122;6.840;2023-01-01T01:35:51;4.27;;;3.87;;
6019;SDS011;3038;51.122;6.840;2023-01-01T01:38:17;6.43;;;4.13;;
6019;SDS011;3038;51.122;6.840;2023-01-01T01:40:43;4.03;;;3.47;;
6019;SDS011;3038;51.122;6.840;2023-01-01T01:43:18;3.43;;;2.90;;
6019;SDS011;3038;51.122;6.840;2023-01-01T01:45:58;4.40;;;3.13;;
6019;SDS011;3038;51.122;6.840;2023-01-01T01:48:27;5.10;;;2.93;;
6019;SDS011;3038;51.122;6.840;2023-01-01T01:51:02;4.37;;;2.90;;
6019;SDS011;3038;51.122;6.840;2023-01-01T01:53:31;3.60;;;2.90;;
6019;SDS011;3038;51.122;6.840;2023-01-01T01:56:03;6.10;;;2.67;;
6019;SDS011;3038;51.122;6.840;2023-01-01T01:58:34;4.10;;;2.80;;
6019;SDS011;3038;51.122;6.840;2023-01-01T02:01:00;3.93;;;2.43;;
6019;SDS011;3038;51.122;6.840;2023-01-01T02:03:26;2.67;;;2.33;;
6019;SDS011;3038;51.122;6.840;2023-01-01T02:06:07;6.13;;;2.63;;
6019;SDS011;3038;51.122;6.840;2023-01-01T02:08:33;3.67;;;2.30;;
6019;SDS011;3038;51.122;6.840;2023-01-01T02:10:59;4.13;;;2.37;;
6019;SDS011;3038;51.122;6.840;2023-01-01T02:13:25;3.67;;;2.30;;
6019;SDS011;3038;51.122;6.840;2023-01-01T02:15:51;4.90;;;2.30;;
6019;SDS011;3038;51.122;6.840;2023-01-01T02:21:36;2.17;;;1.87;;
6019;SDS011;3038;51.122;6.840;2023-01-01T02:24:14;4.60;;;2.60;;
6019;SDS011;3038;51.122;6.840;2023-01-01T02:29:42;6.40;;;4.00;;
6019;SDS011;3038;51.122;6.840;2023-01-01T02:32:28;7.67;;;2.50;;
6019;SDS011;3038;51.122;6.840;2023-01-01T02:35:06;4.20;;;2.33;;
6019;SDS011;3038;51.122;6.840;2023-01-01T02:37:56;3.43;;;2.10;;
6019;SDS011;3038;51.122;6.840;2023-01-01T02:40:24;3.10;;;1.83;;
6019;SDS011;3038;51.122;6.840;2023-01-01T02:42:52;7.07;;;2.50;;
6019;SDS011;3038;51.122;6.840;2023-01-01T02:45:19;3.93;;;2.10;;
6019;SDS011;3038;51.122;6.840;2023-01-01T02:47:45;2.50;;;2.20;;
6019;SDS011;3038;51.122;6.840;2023-01-01T02:50:16;2.00;;;1.80;;
6019;SDS011;3038;51.122;6.840;2023-01-01T03:01:30;5.73;;;2.27;;
6019;SDS011;3038;51.122;6.840;2023-01-01T03:15:05;6.43;;;2.27;;
6019;SDS011;3038;51.122;6.840;2023-01-01T03:17:37;2.43;;;1.93;;
6019;SDS011;3038;51.122;6.840;2023-01-01T03:20:10;4.03;;;1.87;;
6019;SDS011;3038;51.122;6.840;2023-01-01T03:22:42;3.83;;;1.80;;
6019;SDS011;3038;51.122;6.840;2023-01-01T03:25:11;5.00;;;2.50;;
6019;SDS011;3038;51.122;6.840;2023-01-01T03:27:41;3.60;;;2.43;;
6019;SDS011;3038;51.122;6.840;2023-01-01T03:30:12;4.20;;;1.83;;
6019;SDS011;3038;51.122;6.840;2023-01-01T03:32:41;3.43;;;2.30;;
6019;SDS011;3038;51.122;6.840;2023-01-01T03:35:24;2.43;;;1.90;;
6019;SDS011;3038;51.122;6.840;2023-01-01T03:37:54;4.43;;;2.00;;
6019;SDS011;3038;51.122;6.840;2023-01-01T03:40:22;4.20;;;2.60;;
6019;SDS011;3038;51.122;6.840;2023-01-01T03:42:51;4.87;;;2.30;;
6019;SDS011;3038;51.122;6.840;2023-01-01T03:45:23;2.43;;;1.90;;
6019;SDS011;3038;51.122;6.840;2023-01-01T03:47:53;4.20;;;1.80;;
6019;SDS011;3038;51.122;6.840;2023-01-01T03:50:20;4.43;;;2.23;;
6019;SDS011;3038;51.122;6.840;2023-01-01T03:53:02;4.67;;;2.13;;
6019;SDS011;3038;51.122;6.840;2023-01-01T03:55:43;5.10;;;2.70;;
6019;SDS011;3038;51.122;6.840;2023-01-01T03:58:31;4.33;;;2.30;;
6019;SDS011;3038;51.122;6.840;2023-01-01T04:01:03;3.70;;;2.27;;
6019;SDS011;3038;51.122;6.840;2023-01-01T04:03:37;3.90;;;2.20;;
6019;SDS011;3038;51.122;6.840;2023-01-01T04:06:05;4.40;;;2.40;;
6019;SDS011;3038;51.122;6.840;2023-01-01T04:08:32;5.60;;;2.30;;
6019;SDS011;3038;51.122;6.840;2023-01-01T04:10:59;3.90;;;1.90;;
6019;SDS011;3038;51.122;6.840;2023-01-01T04:13:47;3.30;;;2.20;;
6019;SDS011;3038;51.122;6.840;2023-01-01T04:16:13;4.10;;;2.67;;
6019;SDS011;3038;51.122;6.840;2023-01-01T04:18:38;2.90;;;2.20;;
6019;SDS011;3038;51.122;6.840;2023-01-01T04:21:03;3.03;;;2.20;;
6019;SDS011;3038;51.122;6.840;2023-01-01T04:23:29;3.20;;;2.27;;
6019;SDS011;3038;51.122;6.840;2023-01-01T04:25:54;2.67;;;1.80;;
6019;SDS011;3038;51.122;6.840;2023-01-01T04:28:19;5.10;;;2.30;;
6019;SDS011;3038;51.122;6.840;2023-01-01T04:30:45;5.57;;;2.20;;
6019;SDS011;3038;51.122;6.840;2023-01-01T04:33:10;3.00;;;2.40;;
6019;SDS011;3038;51.122;6.840;2023-01-01T04:35:35;5.20;;;2.17;;
6019;SDS011;3038;51.122;6.840;2023-01-01T04:38:02;6.17;;;2.50;;
6019;SDS011;3038;51.122;6.840;2023-01-01T04:40:27;4.13;;;2.20;;
6019;SDS011;3038;51.122;6.840;2023-01-01T04:42:53;5.20;;;2.30;;
6019;SDS011;3038;51.122;6.840;2023-01-01T04:45:18;5.10;;;2.73;;
6019;SDS011;3038;51.122;6.840;2023-01-01T04:47:43;3.50;;;2.07;;
6019;SDS011;3038;51.122;6.840;2023-01-01T04:50:09;6.00;;;2.40;;
6019;SDS011;3038;51.122;6.840;2023-01-01T04:52:34;4.13;;;2.10;;
6019;SDS011;3038;51.122;6.840;2023-01-01T04:55:00;4.17;;;2.50;;
6019;SDS011;3038;51.122;6.840;2023-01-01T04:57:27;3.53;;;1.90;;
6019;SDS011;3038;51.122;6.840;2023-01-01T04:59:54;2.80;;;1.97;;
6019;SDS011;3038;51.122;6.840;2023-01-01T05:02:19;6.00;;;2.33;;
6019;SDS011;3038;51.122;6.840;2023-01-01T05:04:44;4.27;;;2.90;;
6019;SDS011;3038;51.122;6.840;2023-01-01T05:07:10;6.73;;;2.67;;
6019;SDS011;3038;51.122;6.840;2023-01-01T05:09:35;3.43;;;2.17;;
6019;SDS011;3038;51.122;6.840;2023-01-01T05:12:01;2.80;;;2.33;;
6019;SDS011;3038;51.122;6.840;2023-01-01T05:14:26;4.03;;;2.20;;
6019;SDS011;3038;51.122;6.840;2023-01-01T05:16:51;2.40;;;2.20;;
6019;SDS011;3038;51.122;6.840;2023-01-01T05:19:17;5.83;;;2.50;;
6019;SDS011;3038;51.122;6.840;2023-01-01T05:21:42;4.93;;;2.30;;
6019;SDS011;3038;51.122;6.840;2023-01-01T05:24:09;5.17;;;2.03;;
6019;SDS011;3038;51.122;6.840;2023-01-01T05:26:39;4.97;;;3.00;;
6019;SDS011;3038;51.122;6.840;2023-01-01T05:29:06;4.90;;;2.33;;
6019;SDS011;3038;51.122;6.840;2023-01-01T05:31:32;4.73;;;2.27;;
6019;SDS011;3038;51.122;6.840;2023-01-01T05:33:59;4.00;;;2.30;;
6019;SDS011;3038;51.122;6.840;2023-01-01T05:36:27;5.27;;;3.13;;
6019;SDS011;3038;51.122;6.840;2023-01-01T05:38:55;4.50;;;2.17;;
6019;SDS011;3038;51.122;6.840;2023-01-01T05:41:21;4.30;;;2.80;;
6019;SDS011;3038;51.122;6.840;2023-01-01T05:43:48;4.83;;;2.40;;
6019;SDS011;3038;51.122;6.840;2023-01-01T05:46:16;8.40;;;2.57;;
6019;SDS011;3038;51.122;6.840;2023-01-01T05:48:46;5.73;;;2.73;;
6019;SDS011;3038;51.122;6.840;2023-01-01T05:51:12;3.43;;;2.40;;
6019;SDS011;3038;51.122;6.840;2023-01-01T05:53:40;5.37;;;2.07;;
6019;SDS011;3038;51.122;6.840;2023-01-01T05:56:06;2.83;;;2.20;;
6019;SDS011;3038;51.122;6.840;2023-01-01T05:58:32;4.23;;;2.10;;
6019;SDS011;3038;51.122;6.840;2023-01-01T06:01:09;2.97;;;2.10;;
6019;SDS011;3038;51.122;6.840;2023-01-01T06:03:37;2.53;;;1.90;;
6019;SDS011;3038;51.122;6.840;2023-01-01T06:06:06;4.50;;;2.60;;
6019;SDS011;3038;51.122;6.840;2023-01-01T06:08:34;6.73;;;2.87;;
6019;SDS011;3038;51.122;6.840;2023-01-01T06:11:03;5.33;;;2.50;;
6019;SDS011;3038;51.122;6.840;2023-01-01T06:13:30;2.73;;;2.30;;
6019;SDS011;3038;51.122;6.840;2023-01-01T06:15:56;5.03;;;2.27;;
6019;SDS011;3038;51.122;6.840;2023-01-01T06:18:24;4.40;;;2.40;;
6019;SDS011;3038;51.122;6.840;2023-01-01T06:20:50;4.60;;;2.73;;
6019;SDS011;3038;51.122;6.840;2023-01-01T06:23:16;4.80;;;2.60;;
6019;SDS011;3038;51.122;6.840;2023-01-01T06:25:41;2.80;;;2.50;;
6019;SDS011;3038;51.122;6.840;2023-01-01T06:28:07;4.50;;;2.40;;
6019;SDS011;3038;51.122;6.840;2023-01-01T06:30:32;7.27;;;2.50;;
6019;SDS011;3038;51.122;6.840;2023-01-01T06:32:58;3.60;;;2.10;;
6019;SDS011;3038;51.122;6.840;2023-01-01T06:35:24;3.27;;;2.17;;
6019;SDS011;3038;51.122;6.840;2023-01-01T06:37:50;6.13;;;2.30;;
6019;SDS011;3038;51.122;6.840;2023-01-01T06:40:15;2.83;;;2.13;;
6019;SDS011;3038;51.122;6.840;2023-01-01T06:42:40;5.47;;;3.63;;
6019;SDS011;3038;51.122;6.840;2023-01-01T06:45:06;3.20;;;2.57;;
6019;SDS011;3038;51.122;6.840;2023-01-01T06:47:32;5.50;;;3.30;;
6019;SDS011;3038;51.122;6.840;2023-01-01T06:49:59;3.00;;;2.60;;
6019;SDS011;3038;51.122;6.840;2023-01-01T06:52:24;3.93;;;2.33;;
6019;SDS011;3038;51.122;6.840;2023-01-01T06:54:50;5.87;;;2.97;;
6019;SDS011;3038;51.122;6.840;2023-01-01T06:57:15;4.43;;;3.60;;
6019;SDS011;3038;51.122;6.840;2023-01-01T06:59:40;5.47;;;2.70;;
6019;SDS011;3038;51.122;6.840;2023-01-01T07:02:08;3.33;;;1.87;;
6019;SDS011;3038;51.122;6.840;2023-01-01T07:04:34;3.67;;;2.30;;
6019;SDS011;3038;51.122;6.840;2023-01-01T07:07:00;6.63;;;3.03;;
6019;SDS011;3038;51.122;6.840;2023-01-01T07:09:25;6.20;;;2.90;;
6019;SDS011;3038;51.122;6.840;2023-01-01T07:11:50;4.17;;;2.50;;
6019;SDS011;3038;51.122;6.840;2023-01-01T07:14:16;4.70;;;2.43;;
6019;SDS011;3038;51.122;6.840;2023-01-01T07:16:41;2.10;;;1.90;;
6019;SDS011;3038;51.122;6.840;2023-01-01T07:19:06;7.00;;;2.63;;
6019;SDS011;3038;51.122;6.840;2023-01-01T07:21:32;14.37;;;4.00;;
6019;SDS011;3038;51.122;6.840;2023-01-01T07:24:12;7.30;;;2.80;;
6019;SDS011;3038;51.122;6.840;2023-01-01T07:26:39;5.23;;;2.20;;
6019;SDS011;3038;51.122;6.840;2023-01-01T07:29:05;3.30;;;1.90;;
6019;SDS011;3038;51.122;6.840;2023-01-01T07:31:32;4.40;;;2.80;;
6019;SDS011;3038;51.122;6.840;2023-01-01T07:33:59;4.77;;;2.30;;
6019;SDS011;3038;51.122;6.840;2023-01-01T07:36:24;4.30;;;2.60;;
6019;SDS011;3038;51.122;6.840;2023-01-01T07:38:49;5.67;;;3.03;;
6019;SDS011;3038;51.122;6.840;2023-01-01T07:41:15;4.70;;;2.80;;
6019;SDS011;3038;51.122;6.840;2023-01-01T07:43:40;5.23;;;3.00;;
6019;SDS011;3038;51.122;6.840;2023-01-01T07:46:05;3.40;;;2.20;;
6019;SDS011;3038;51.122;6.840;2023-01-01T07:48:31;3.23;;;2.37;;
6019;SDS011;3038;51.122;6.840;2023-01-01T07:50:56;5.20;;;2.17;;
6019;SDS011;3038;51.122;6.840;2023-01-01T07:53:21;2.67;;;1.90;;
6019;SDS011;3038;51.122;6.840;2023-01-01T07:55:47;3.90;;;2.30;;
6019;SDS011;3038;51.122;6.840;2023-01-01T07:58:12;4.03;;;2.40;;
6019;SDS011;3038;51.122;6.840;2023-01-01T08:00:38;3.77;;;2.70;;
6019;SDS011;3038;51.122;6.840;2023-01-01T08:03:04;3.90;;;2.33;;
6019;SDS011;3038;51.122;6.840;2023-01-01T08:05:30;4.50;;;2.37;;
6019;SDS011;3038;51.122;6.840;2023-01-01T08:07:58;3.80;;;2.37;;
6019;SDS011;3038;51.122;6.840;2023-01-01T08:10:23;6.93;;;2.73;;
6019;SDS011;3038;51.122;6.840;2023-01-01T08:12:48;6.87;;;2.67;;
6019;SDS011;3038;51.122;6.840;2023-01-01T08:15:14;3.07;;;1.80;;
6019;SDS011;3038;51.122;6.840;2023-01-01T08:17:40;9.03;;;2.40;;
6019;SDS011;3038;51.122;6.840;2023-01-01T08:20:05;8.20;;;2.40;;
6019;SDS011;3038;51.122;6.840;2023-01-01T08:22:32;5.77;;;2.57;;
6019;SDS011;3038;51.122;6.840;2023-01-01T08:24:57;4.50;;;3.23;;
6019;SDS011;3038;51.122;6.840;2023-01-01T08:27:22;5.83;;;2.90;;
6019;SDS011;3038;51.122;6.840;2023-01-01T08:29:48;7.30;;;3.67;;
6019;SDS011;3038;51.122;6.840;2023-01-01T08:32:13;4.90;;;2.80;;
6019;SDS011;3038;51.122;6.840;2023-01-01T08:34:38;6.17;;;1.70;;
6019;SDS011;3038;51.122;6.840;2023-01-01T08:37:04;3.83;;;2.50;;
6019;SDS011;3038;51.122;6.840;2023-01-01T08:39:30;9.30;;;2.90;;
6019;SDS011;3038;51.122;6.840;2023-01-01T08:41:55;5.63;;;2.40;;
6019;SDS011;3038;51.122;6.840;2023-01-01T08:44:21;5.53;;;2.43;;
6019;SDS011;3038;51.122;6.840;2023-01-01T08:46:46;4.53;;;2.47;;
6019;SDS011;3038;51.122;6.840;2023-01-01T08:49:11;5.40;;;2.43;;
6019;SDS011;3038;51.122;6.840;2023-01-01T08:51:37;5.00;;;2.30;;
6019;SDS011;3038;51.122;6.840;2023-01-01T08:54:02;5.70;;;2.20;;
6019;SDS011;3038;51.122;6.840;2023-01-01T08:56:28;4.57;;;2.53;;
6019;SDS011;3038;51.122;6.840;2023-01-01T08:58:53;5.47;;;2.83;;
6019;SDS011;3038;51.122;6.840;2023-01-01T09:01:19;4.30;;;2.60;;
6019;SDS011;3038;51.122;6.840;2023-01-01T09:03:46;7.40;;;2.50;;
6019;SDS011;3038;51.122;6.840;2023-01-01T09:06:11;5.17;;;3.13;;
6019;SDS011;3038;51.122;6.840;2023-01-01T09:08:37;6.23;;;2.47;;
6019;SDS011;3038;51.122;6.840;2023-01-01T09:11:02;3.73;;;2.50;;
6019;SDS011;3038;51.122;6.840;2023-01-01T09:13:28;4.80;;;2.23;;
6019;SDS011;3038;51.122;6.840;2023-01-01T09:15:55;4.00;;;2.10;;
6019;SDS011;3038;51.122;6.840;2023-01-01T09:18:20;5.80;;;2.30;;
6019;SDS011;3038;51.122;6.840;2023-01-01T09:20:46;8.90;;;2.87;;
6019;SDS011;3038;51.122;6.840;2023-01-01T09:23:11;5.57;;;2.20;;
6019;SDS011;3038;51.122;6.840;2023-01-01T09:25:37;4.20;;;2.30;;
6019;SDS011;3038;51.122;6.840;2023-01-01T09:28:04;5.60;;;2.70;;
6019;SDS011;3038;51.122;6.840;2023-01-01T09:30:35;3.70;;;2.10;;
6019;SDS011;3038;51.122;6.840;2023-01-01T09:33:01;9.00;;;3.43;;
6019;SDS011;3038;51.122;6.840;2023-01-01T09:35:26;7.20;;;2.37;;
6019;SDS011;3038;51.122;6.840;2023-01-01T09:37:52;6.20;;;2.30;;
6019;SDS011;3038;51.122;6.840;2023-01-01T09:40:29;4.50;;;2.13;;
6019;SDS011;3038;51.122;6.840;2023-01-01T09:45:39;4.80;;;3.40;;
6019;SDS011;3038;51.122;6.840;2023-01-01T09:48:14;6.40;;;2.83;;
6019;SDS011;3038;51.122;6.840;2023-01-01T09:50:41;6.37;;;2.93;;
6019;SDS011;3038;51.122;6.840;2023-01-01T09:53:12;5.93;;;3.27;;
6019;SDS011;3038;51.122;6.840;2023-01-01T09:55:50;4.17;;;2.37;;
6019;SDS011;3038;51.122;6.840;2023-01-01T09:58:20;8.43;;;3.07;;
6019;SDS011;3038;51.122;6.840;2023-01-01T10:00:51;5.67;;;2.47;;
6019;SDS011;3038;51.122;6.840;2023-01-01T10:14:22;4.00;;;2.13;;
6019;SDS011;3038;51.122;6.840;2023-01-01T10:16:54;4.43;;;2.40;;
6019;SDS011;3038;51.122;6.840;2023-01-01T10:21:55;4.37;;;2.20;;
6019;SDS011;3038;51.122;6.840;2023-01-01T10:27:08;4.20;;;2.80;;
6019;SDS011;3038;51.122;6.840;2023-01-01T10:29:44;7.23;;;2.23;;
6019;SDS011;3038;51.122;6.840;2023-01-01T10:34:58;8.47;;;3.27;;
6019;SDS011;3038;51.122;6.840;2023-01-01T10:37:27;5.77;;;3.60;;
6019;SDS011;3038;51.122;6.840;2023-01-01T10:39:57;8.47;;;4.00;;
6019;SDS011;3038;51.122;6.840;2023-01-01T10:42:24;5.50;;;5.00;;
6019;SDS011;3038;51.122;6.840;2023-01-01T10:44:50;7.20;;;3.80;;
6019;SDS011;3038;51.122;6.840;2023-01-01T10:49:53;6.33;;;3.90;;
6019;SDS011;3038;51.122;6.840;2023-01-01T10:52:30;5.97;;;2.20;;
6019;SDS011;3038;51.122;6.840;2023-01-01T10:54:59;5.43;;;2.70;;
6019;SDS011;3038;51.122;6.840;2023-01-01T10:57:37;5.80;;;2.47;;
6019;SDS011;3038;51.122;6.840;2023-01-01T11:00:08;5.70;;;2.50;;
6019;SDS011;3038;51.122;6.840;2023-01-01T11:02:34;5.03;;;3.47;;
6019;SDS011;3038;51.122;6.840;2023-01-01T11:05:34;3.97;;;3.20;;
6019;SDS011;3038;51.122;6.840;2023-01-01T11:07:52;5.30;;;4.23;;
6019;SDS011;3038;51.122;6.840;2023-01-01T11:10:21;3.70;;;2.20;;
6019;SDS011;3038;51.122;6.840;2023-01-01T11:12:50;5.10;;;3.20;;
6019;SDS011;3038;51.122;6.840;2023-01-01T11:17:50;9.37;;;3.97;;
6019;SDS011;3038;51.122;6.840;2023-01-01T11:20:16;4.63;;;2.73;;
6019;SDS011;3038;51.122;6.840;2023-01-01T11:22:47;4.30;;;2.50;;
6019;SDS011;3038;51.122;6.840;2023-01-01T11:27:44;4.80;;;1.90;;
6019;SDS011;3038;51.122;6.840;2023-01-01T11:30:18;5.40;;;2.93;;
6019;SDS011;3038;51.122;6.840;2023-01-01T11:32:44;4.40;;;2.30;;
6019;SDS011;3038;51.122;6.840;2023-01-01T11:35:20;3.70;;;1.90;;
6019;SDS011;3038;51.122;6.840;2023-01-01T11:37:47;7.50;;;2.47;;
6019;SDS011;3038;51.122;6.840;2023-01-01T11:40:16;5.40;;;2.57;;
6019;SDS011;3038;51.122;6.840;2023-01-01T11:42:44;6.77;;;2.90;;
6019;SDS011;3038;51.122;6.840;2023-01-01T11:45:20;8.90;;;1.83;;
6019;SDS011;3038;51.122;6.840;2023-01-01T11:47:57;6.40;;;1.80;;
6019;SDS011;3038;51.122;6.840;2023-01-01T11:50:29;4.47;;;2.30;;
6019;SDS011;3038;51.122;6.840;2023-01-01T11:53:15;4.77;;;2.43;;
6019;SDS011;3038;51.122;6.840;2023-01-01T11:58:51;4.27;;;2.30;;
6019;SDS011;3038;51.122;6.840;2023-01-01T12:04:08;2.30;;;1.80;;
6019;SDS011;3038;51.122;6.840;2023-01-01T12:06:39;5.70;;;2.30;;
6019;SDS011;3038;51.122;6.840;2023-01-01T12:11:47;5.87;;;2.83;;
6019;SDS011;3038;51.122;6.840;2023-01-01T12:19:37;7.57;;;2.80;;
6019;SDS011;3038;51.122;6.840;2023-01-01T12:22:11;5.50;;;2.80;;
6019;SDS011;3038;51.122;6.840;2023-01-01T12:24:40;3.77;;;2.33;;
6019;SDS011;3038;51.122;6.840;2023-01-01T12:33:02;4.40;;;2.97;;
6019;SDS011;3038;51.122;6.840;2023-01-01T12:41:04;6.47;;;2.17;;
6019;SDS011;3038;51.122;6.840;2023-01-01T12:57:30;4.00;;;2.43;;
6019;SDS011;3038;51.122;6.840;2023-01-01T13:00:00;4.83;;;2.40;;
6019;SDS011;3038;51.122;6.840;2023-01-01T13:02:28;4.63;;;2.10;;
6019;SDS011;3038;51.122;6.840;2023-01-01T13:05:09;5.83;;;2.70;;
6019;SDS011;3038;51.122;6.840;2023-01-01T13:07:42;6.70;;;2.53;;
6019;SDS011;3038;51.122;6.840;2023-01-01T13:10:18;4.27;;;2.63;;
6019;SDS011;3038;51.122;6.840;2023-01-01T13:12:49;9.93;;;5.00;;
6019;SDS011;3038;51.122;6.840;2023-01-01T13:15:59;23.73;;;18.93;;
6019;SDS011;3038;51.122;6.840;2023-01-01T13:20:39;10.30;;;7.90;;
6019;SDS011;3038;51.122;6.840;2023-01-01T13:23:39;9.73;;;5.80;;
6019;SDS011;3038;51.122;6.840;2023-01-01T13:31:26;3.93;;;2.47;;
6019;SDS011;3038;51.122;6.840;2023-01-01T13:45:19;6.23;;;3.23;;
6019;SDS011;3038;51.122;6.840;2023-01-01T13:50:28;4.83;;;3.17;;
6019;SDS011;3038;51.122;6.840;2023-01-01T13:53:07;6.47;;;3.23;;
6019;SDS011;3038;51.122;6.840;2023-01-01T14:03:40;3.50;;;2.37;;
6019;SDS011;3038;51.122;6.840;2023-01-01T14:09:09;7.43;;;3.93;;
6019;SDS011;3038;51.122;6.840;2023-01-01T14:11:37;5.77;;;3.73;;
6019;SDS011;3038;51.122;6.840;2023-01-01T14:14:02;5.10;;;3.27;;
6019;SDS011;3038;51.122;6.840;2023-01-01T14:16:48;5.63;;;2.80;;
6019;SDS011;3038;51.122;6.840;2023-01-01T14:19:15;5.50;;;3.17;;
6019;SDS011;3038;51.122;6.840;2023-01-01T14:21:40;5.53;;;2.90;;
6019;SDS011;3038;51.122;6.840;2023-01-01T14:24:07;4.43;;;3.20;;
6019;SDS011;3038;51.122;6.840;2023-01-01T14:26:33;6.10;;;3.47;;
6019;SDS011;3038;51.122;6.840;2023-01-01T14:29:05;4.27;;;2.50;;
6019;SDS011;3038;51.122;6.840;2023-01-01T14:31:39;7.00;;;2.47;;
6019;SDS011;3038;51.122;6.840;2023-01-01T14:34:14;5.80;;;2.50;;
6019;SDS011;3038;51.122;6.840;2023-01-01T14:36:50;5.60;;;3.70;;
6019;SDS011;3038;51.122;6.840;2023-01-01T14:39:26;5.93;;;3.33;;
6019;SDS011;3038;51.122;6.840;2023-01-01T14:41:52;5.63;;;4.17;;
6019;SDS011;3038;51.122;6.840;2023-01-01T14:44:22;3.20;;;2.67;;
6019;SDS011;3038;51.122;6.840;2023-01-01T14:46:52;3.93;;;2.80;;
6019;SDS011;3038;51.122;6.840;2023-01-01T14:49:19;3.70;;;2.67;;
6019;SDS011;3038;51.122;6.840;2023-01-01T14:51:53;7.10;;;3.17;;
6019;SDS011;3038;51.122;6.840;2023-01-01T14:54:21;4.83;;;2.80;;
6019;SDS011;3038;51.122;6.840;2023-01-01T14:56:53;13.50;;;3.10;;
6019;SDS011;3038;51.122;6.840;2023-01-01T14:59:32;5.27;;;2.63;;
6019;SDS011;3038;51.122;6.840;2023-01-01T15:02:14;5.33;;;2.63;;
6019;SDS011;3038;51.122;6.840;2023-01-01T15:04:41;3.10;;;2.80;;
6019;SDS011;3038;51.122;6.840;2023-01-01T15:07:17;5.10;;;2.80;;
6019;SDS011;3038;51.122;6.840;2023-01-01T15:09:55;4.20;;;2.53;;
6019;SDS011;3038;51.122;6.840;2023-01-01T15:12:26;4.20;;;3.10;;
6019;SDS011;3038;51.122;6.840;2023-01-01T15:14:52;4.00;;;2.77;;
6019;SDS011;3038;51.122;6.840;2023-01-01T15:17:21;6.83;;;3.37;;
6019;SDS011;3038;51.122;6.840;2023-01-01T15:22:45;6.33;;;3.63;;
6019;SDS011;3038;51.122;6.840;2023-01-01T15:25:12;7.03;;;4.30;;
6019;SDS011;3038;51.122;6.840;2023-01-01T15:27:40;7.40;;;3.93;;
6019;SDS011;3038;51.122;6.840;2023-01-01T15:30:05;5.93;;;2.83;;
6019;SDS011;3038;51.122;6.840;2023-01-01T15:32:32;3.60;;;2.10;;
6019;SDS011;3038;51.122;6.840;2023-01-01T15:35:02;7.23;;;1.97;;
6019;SDS011;3038;51.122;6.840;2023-01-01T15:42:39;5.97;;;1.83;;
6019;SDS011;3038;51.122;6.840;2023-01-01T15:48:23;4.47;;;1.87;;
6019;SDS011;3038;51.122;6.840;2023-01-01T15:51:05;5.60;;;2.00;;
6019;SDS011;3038;51.122;6.840;2023-01-01T15:53:39;5.50;;;1.90;;
6019;SDS011;3038;51.122;6.840;2023-01-01T15:56:15;3.33;;;1.73;;
6019;SDS011;3038;51.122;6.840;2023-01-01T16:01:39;3.60;;;2.00;;
6019;SDS011;3038;51.122;6.840;2023-01-01T16:06:33;3.30;;;2.10;;
6019;SDS011;3038;51.122;6.840;2023-01-01T16:09:09;3.20;;;2.00;;
6019;SDS011;3038;51.122;6.840;2023-01-01T16:11:36;2.40;;;1.37;;
6019;SDS011;3038;51.122;6.840;2023-01-01T16:14:01;2.97;;;2.00;;
6019;SDS011;3038;51.122;6.840;2023-01-01T16:16:27;2.03;;;1.80;;
6019;SDS011;3038;51.122;6.840;2023-01-01T16:18:54;4.93;;;1.77;;
6019;SDS011;3038;51.122;6.840;2023-01-01T16:21:21;2.73;;;2.10;;
6019;SDS011;3038;51.122;6.840;2023-01-01T16:23:49;3.80;;;1.90;;
6019;SDS011;3038;51.122;6.840;2023-01-01T16:26:14;5.10;;;1.97;;
6019;SDS011;3038;51.122;6.840;2023-01-01T16:28:40;6.80;;;2.80;;
6019;SDS011;3038;51.122;6.840;2023-01-01T16:31:05;3.67;;;2.40;;
6019;SDS011;3038;51.122;6.840;2023-01-01T16:33:30;4.20;;;2.03;;
6019;SDS011;3038;51.122;6.840;2023-01-01T16:35:56;5.93;;;2.13;;
6019;SDS011;3038;51.122;6.840;2023-01-01T16:38:21;3.63;;;2.57;;
6019;SDS011;3038;51.122;6.840;2023-01-01T16:40:46;5.13;;;2.97;;
6019;SDS011;3038;51.122;6.840;2023-01-01T16:43:16;3.50;;;2.13;;
6019;SDS011;3038;51.122;6.840;2023-01-01T16:45:42;2.93;;;1.87;;
6019;SDS011;3038;51.122;6.840;2023-01-01T16:48:08;3.57;;;2.13;;
6019;SDS011;3038;51.122;6.840;2023-01-01T16:50:34;6.00;;;2.40;;
6019;SDS011;3038;51.122;6.840;2023-01-01T16:52:59;5.00;;;2.20;;
6019;SDS011;3038;51.122;6.840;2023-01-01T16:55:24;3.17;;;1.87;;
6019;SDS011;3038;51.122;6.840;2023-01-01T16:57:50;2.90;;;2.00;;
6019;SDS011;3038;51.122;6.840;2023-01-01T17:00:15;3.77;;;3.00;;
6019;SDS011;3038;51.122;6.840;2023-01-01T17:02:41;5.30;;;3.33;;
6019;SDS011;3038;51.122;6.840;2023-01-01T17:05:06;5.80;;;3.10;;
6019;SDS011;3038;51.122;6.840;2023-01-01T17:07:32;4.40;;;4.00;;
6019;SDS011;3038;51.122;6.840;2023-01-01T17:09:57;7.70;;;3.30;;
6019;SDS011;3038;51.122;6.840;2023-01-01T17:12:23;4.97;;;3.30;;
6019;SDS011;3038;51.122;6.840;2023-01-01T17:14:48;5.67;;;3.20;;
6019;SDS011;3038;51.122;6.840;2023-01-01T17:17:13;4.60;;;2.90;;
6019;SDS011;3038;51.122;6.840;2023-01-01T17:19:39;6.70;;;3.83;;
6019;SDS011;3038;51.122;6.840;2023-01-01T17:22:04;4.97;;;3.87;;
6019;SDS011;3038;51.122;6.840;2023-01-01T17:24:30;6.20;;;5.60;;
6019;SDS011;3038;51.122;6.840;2023-01-01T17:26:56;5.03;;;4.53;;
6019;SDS011;3038;51.122;6.840;2023-01-01T17:29:22;8.23;;;5.77;;
6019;SDS011;3038;51.122;6.840;2023-01-01T17:31:49;8.90;;;5.57;;
6019;SDS011;3038;51.122;6.840;2023-01-01T17:34:15;7.57;;;6.33;;
6019;SDS011;3038;51.122;6.840;2023-01-01T17:36:41;8.57;;;6.80;;
6019;SDS011;3038;51.122;6.840;2023-01-01T17:39:09;6.90;;;6.30;;
6019;SDS011;3038;51.122;6.840;2023-01-01T17:41:35;7.40;;;6.70;;
6019;SDS011;3038;51.122;6.840;2023-01-01T17:44:01;6.73;;;6.13;;
6019;SDS011;3038;51.122;6.840;2023-01-01T17:46:27;9.30;;;5.90;;